createdAt,value
2022-12-15T00:05:23.291Z,3.8
2022-12-15T00:11:23.280Z,3.8
2022-12-15T00:17:23.245Z,3.8
2022-12-15T00:23:23.292Z,3.8
2022-12-15T00:29:23.258Z,3.8
2022-12-15T00:35:23.252Z,3.8
2022-12-15T00:41:23.288Z,3.8
2022-12-15T00:47:23.268Z,3.8
2022-12-15T00:53:23.252Z,3.8
2022-12-15T00:59:23.319Z,3.9
2022-12-15T01:05:23.245Z,3.8
2022-12-15T01:11:23.240Z,3.9
2022-12-15T01:17:23.320Z,3.9
2022-12-15T01:23:23.255Z,3.9
2022-12-15T01:29:23.270Z,3.9
2022-12-15T01:35:23.379Z,3.8
2022-12-15T01:41:23.235Z,3.8
2022-12-15T01:47:23.249Z,3.9
2022-12-15T01:53:23.299Z,3.9
2022-12-15T01:59:23.248Z,3.9
2022-12-15T02:05:23.234Z,3.9
2022-12-15T02:11:23.289Z,3.8
2022-12-15T02:17:23.234Z,3.8
2022-12-15T02:23:23.232Z,3.9
2022-12-15T02:29:23.241Z,3.8
2022-12-15T02:35:23.226Z,3.8
2022-12-15T02:41:23.230Z,3.7
2022-12-15T02:47:23.286Z,3.7
2022-12-15T02:53:23.232Z,3.7
2022-12-15T02:59:23.219Z,3.7
2022-12-15T03:05:23.227Z,3.8
2022-12-15T03:11:23.215Z,3.8
2022-12-15T03:17:23.226Z,3.8
2022-12-15T03:23:23.235Z,3.8
2022-12-15T03:29:23.203Z,3.7
2022-12-15T03:35:23.204Z,3.8
2022-12-15T03:41:23.241Z,3.7
2022-12-15T03:47:23.218Z,3.7
2022-12-15T03:53:23.203Z,3.7
2022-12-15T03:59:23.251Z,3.7
2022-12-15T04:05:23.220Z,3.7
2022-12-15T04:11:23.202Z,3.7
2022-12-15T04:17:23.259Z,3.7
2022-12-15T04:23:23.212Z,3.7
2022-12-15T04:29:23.193Z,3.7
2022-12-15T04:35:23.228Z,3.8
2022-12-15T04:41:23.212Z,3.8
2022-12-15T04:47:23.182Z,3.8
2022-12-15T04:53:23.309Z,3.7
2022-12-15T04:59:23.232Z,3.7
2022-12-15T05:05:23.278Z,3.7
2022-12-15T05:11:23.220Z,3.8
2022-12-15T05:17:23.257Z,3.7
2022-12-15T05:23:23.208Z,3.7
2022-12-15T05:29:23.215Z,3.7
2022-12-15T05:35:23.192Z,3.7
2022-12-15T05:41:23.184Z,3.7
2022-12-15T05:47:23.224Z,3.6
2022-12-15T05:53:23.180Z,3.6
2022-12-15T05:59:23.192Z,3.7
2022-12-15T06:05:23.201Z,3.7
2022-12-15T06:11:23.174Z,3.7
2022-12-15T06:17:23.188Z,3.6
2022-12-15T06:23:23.227Z,3.6
2022-12-15T06:29:23.180Z,3.6
2022-12-15T06:35:23.212Z,3.6
2022-12-15T06:41:23.199Z,3.6
2022-12-15T06:47:23.165Z,3.6
2022-12-15T06:53:23.171Z,3.7
2022-12-15T06:59:23.217Z,3.7
2022-12-15T07:05:23.178Z,3.7
2022-12-15T07:11:23.171Z,3.5
2022-12-15T07:17:23.178Z,3.6
2022-12-15T07:23:45.971Z,3.6
2022-12-15T07:29:23.852Z,3.6
2022-12-15T07:35:23.196Z,3.6
2022-12-15T07:41:23.167Z,3.6
2022-12-15T07:47:23.205Z,3.6
2022-12-15T07:53:23.268Z,3.6
2022-12-15T07:59:23.162Z,3.5
2022-12-15T08:05:23.164Z,3.5
2022-12-15T08:11:23.185Z,3.4
2022-12-15T08:17:23.124Z,3.4
2022-12-15T08:23:23.145Z,3.5
2022-12-15T08:29:52.211Z,3.5
2022-12-15T08:35:54.673Z,3.5
2022-12-15T08:41:23.191Z,3.5
2022-12-15T08:47:23.161Z,3.5
2022-12-15T08:53:31.840Z,3.5
2022-12-15T08:59:23.149Z,3.5
2022-12-15T09:05:23.163Z,3.6
2022-12-15T09:11:23.142Z,3.6
2022-12-15T09:17:23.179Z,3.6
2022-12-15T09:23:23.179Z,3.6
2022-12-15T09:29:23.129Z,3.6
2022-12-15T09:35:23.142Z,3.5
2022-12-15T09:41:23.159Z,3.7
2022-12-15T09:47:23.117Z,3.7
2022-12-15T09:53:53.610Z,3.8
2022-12-15T09:59:23.164Z,3.9
2022-12-15T10:05:29.808Z,3.8
2022-12-15T10:11:23.104Z,3.7
2022-12-15T10:17:23.152Z,3.8
2022-12-15T10:23:23.149Z,3.8
2022-12-15T10:29:23.243Z,3.8
2022-12-15T10:35:23.272Z,3.8
2022-12-15T10:41:23.102Z,3.8
2022-12-15T10:47:23.117Z,3.8
2022-12-15T10:53:23.245Z,3.7
2022-12-15T10:59:23.106Z,3.7
2022-12-15T11:05:23.108Z,3.8
2022-12-15T11:11:26.146Z,3.7
2022-12-15T11:17:23.139Z,3.7
2022-12-15T11:23:23.134Z,3.8
2022-12-15T11:29:23.126Z,3.7
2022-12-15T11:35:23.130Z,3.6
2022-12-15T11:41:23.088Z,3.7
2022-12-15T11:47:23.099Z,3.7
2022-12-15T11:53:23.096Z,3.7
2022-12-15T11:59:23.112Z,3.7
2022-12-15T12:05:23.112Z,3.8
2022-12-15T12:11:23.112Z,3.7
2022-12-15T12:17:23.119Z,3.7
2022-12-15T12:23:23.122Z,3.7
2022-12-15T12:29:23.089Z,3.7
2022-12-15T12:35:31.311Z,3.8
2022-12-15T12:41:23.113Z,3.8
2022-12-15T12:47:23.103Z,3.9
2022-12-15T12:53:23.101Z,3.8
2022-12-15T12:59:23.102Z,3.8
2022-12-15T13:05:23.087Z,3.8
2022-12-15T13:11:23.070Z,3.7
2022-12-15T13:17:27.473Z,3.8
2022-12-15T13:23:23.100Z,3.8
2022-12-15T13:29:23.062Z,3.8
2022-12-15T13:35:23.108Z,3.9
2022-12-15T13:41:23.117Z,3.9
2022-12-15T13:47:23.072Z,3.9
2022-12-15T13:53:23.118Z,3.8
2022-12-15T13:59:23.086Z,3.9
2022-12-15T14:05:23.064Z,3.8
2022-12-15T14:11:51.476Z,3.7
2022-12-15T14:17:23.097Z,3.7
2022-12-15T14:23:23.050Z,3.7
2022-12-15T14:29:23.106Z,3.8
2022-12-15T14:35:23.063Z,3.8
2022-12-15T14:41:23.040Z,3.9
2022-12-15T14:47:23.146Z,3.8
2022-12-15T14:53:23.071Z,3.9
2022-12-15T14:59:23.052Z,3.8
2022-12-15T15:05:23.148Z,3.9
2022-12-15T15:11:23.085Z,3.8
2022-12-15T15:17:23.063Z,3.8
2022-12-15T15:23:23.068Z,3.7
2022-12-15T15:29:23.040Z,3.7
2022-12-15T15:35:23.044Z,3.7
2022-12-15T15:41:23.078Z,3.6
2022-12-15T15:47:23.051Z,3.6
2022-12-15T15:53:23.036Z,3.6
2022-12-15T15:59:23.130Z,3.6
2022-12-15T16:05:23.038Z,3.6
2022-12-15T16:11:23.025Z,3.5
2022-12-15T16:17:23.061Z,3.5
2022-12-15T16:23:23.267Z,3.4
2022-12-15T16:29:23.038Z,3.5
2022-12-15T16:35:23.102Z,3.5
2022-12-15T16:41:23.013Z,3.4
2022-12-15T16:47:23.014Z,3.4
2022-12-15T16:53:23.065Z,3.4
2022-12-15T16:59:33.040Z,3.4
2022-12-15T17:05:23.027Z,3.4
2022-12-15T17:11:23.089Z,3.4
2022-12-15T17:17:23.035Z,3.3
2022-12-15T17:23:23.023Z,3.3
2022-12-15T17:29:23.114Z,3.4
2022-12-15T17:35:23.140Z,3.4
2022-12-15T17:41:42.734Z,3.3
2022-12-15T17:47:23.017Z,3.3
2022-12-15T17:53:23.039Z,3.3
2022-12-15T17:59:23.036Z,3.3
2022-12-15T18:05:23.037Z,3.3
2022-12-15T18:11:23.075Z,3.3
2022-12-15T18:17:23.008Z,3.3
2022-12-15T18:23:23.055Z,3.3
2022-12-15T18:29:22.986Z,3.3
2022-12-15T18:35:23.021Z,3.3
2022-12-15T18:41:23.015Z,3.3
2022-12-15T18:47:23.260Z,3.2
2022-12-15T18:53:23.000Z,3.3
2022-12-15T18:59:23.031Z,3.2
2022-12-15T19:05:23.016Z,3.2
2022-12-15T19:11:23.033Z,3.2
2022-12-15T19:17:23.015Z,3.2
2022-12-15T19:23:22.997Z,3.1
2022-12-15T19:29:23.009Z,3.1
2022-12-15T19:35:23.038Z,3.1
2022-12-15T19:41:22.988Z,3.1
2022-12-15T19:47:22.983Z,3.1
2022-12-15T19:53:23.032Z,3.1
2022-12-15T19:59:22.993Z,3.1
2022-12-15T20:05:22.998Z,3.1
2022-12-15T20:11:22.994Z,3.1
2022-12-15T20:17:22.977Z,3.1
2022-12-15T20:23:23.056Z,3.1
2022-12-15T20:29:23.010Z,3.1
2022-12-15T20:35:22.987Z,3.1
2022-12-15T20:41:22.971Z,3.1
2022-12-15T20:47:23.019Z,3.1
2022-12-15T20:53:22.970Z,3
2022-12-15T20:59:22.978Z,3.1
2022-12-15T21:05:23.000Z,3
2022-12-15T21:11:22.964Z,3
2022-12-15T21:17:22.958Z,3
2022-12-15T21:23:23.058Z,2.9
2022-12-15T21:29:22.967Z,3
2022-12-15T21:35:26.142Z,3
2022-12-15T21:41:23.000Z,3
2022-12-15T21:47:22.929Z,3
2022-12-15T21:53:22.974Z,3
2022-12-15T21:59:23.055Z,2.9
2022-12-15T22:05:22.929Z,2.9
2022-12-15T22:11:23.158Z,2.8
2022-12-15T22:17:22.986Z,2.9
2022-12-15T22:23:22.937Z,2.9
2022-12-15T22:29:22.949Z,2.8
2022-12-15T22:35:22.958Z,2.8
2022-12-15T22:41:22.949Z,2.9
2022-12-15T22:47:22.918Z,2.9
2022-12-15T22:53:22.976Z,2.8
2022-12-15T22:59:22.929Z,2.9
2022-12-15T23:05:22.923Z,2.9
2022-12-15T23:11:22.975Z,2.8
2022-12-15T23:17:22.911Z,2.9
2022-12-15T23:23:22.928Z,2.8
2022-12-15T23:29:22.963Z,2.9
2022-12-15T23:35:22.951Z,2.8
2022-12-15T23:41:22.927Z,2.8
2022-12-15T23:47:22.947Z,2.7
2022-12-15T23:53:22.930Z,2.8
2022-12-15T23:59:22.888Z,2.8
